Time;durP1;ratioP1;P1;durP2;ratioP2;P2;SDS_P1;SDS_P2;PMS_P1;PMS_P2;Temp;Humidity;BMP_temperature;BMP_pressure;BME280_temperature;BME280_humidity;BME280_pressure;Samples;Min_cycle;Max_cycle;Signal;HPM_P1;HPM_P2
2022/07/04 00:01:35;;;;;;;;;;;;;;;;;;5055854;28;20257;-70
2022/07/04 00:04:01;;;;;;;;;;;;;;;;;;5055852;28;19962;-69
2022/07/04 00:06:27;;;;;;;;;;;;;;;;;;5056057;28;19916;-69
2022/07/04 00:08:52;;;;;;;;;;;;;;;;;;5055712;28;20387;-70
2022/07/04 00:11:18;;;;;;;;;;;;;;;;;;5055946;28;19909;-69
2022/07/04 00:13:44;;;;;;;;;;;;;;;;;;5055665;28;19909;-69
2022/07/04 00:16:10;;;;;;;;;;;;;;;;;;5055815;28;19920;-70
2022/07/04 00:18:36;;;;;;;;;;;;;;;;;;5055548;28;20043;-70
2022/07/04 00:21:02;;;;;;;;;;;;;;;;;;5055505;28;19909;-69
2022/07/04 00:23:28;;;;;;;;;;;;;;;;;;5055772;28;19916;-69
2022/07/04 00:25:54;;;;;;;;;;;;;;;;;;5055058;28;20358;-69
2022/07/04 00:28:20;;;;;;;;;;;;;;;;;;5055336;28;19916;-69
2022/07/04 00:30:46;;;;;;;;;;;;;;;;;;5055330;28;20006;-69
2022/07/04 00:33:12;;;;;;;;;;;;;;;;;;5055566;28;19948;-69
2022/07/04 00:35:38;;;;;;;;;;;;;;;;;;5054598;28;19916;-69
2022/07/04 00:38:04;;;;;;;;;;;;;;;;;;5054822;28;19975;-69
2022/07/04 00:40:30;;;;;;;;;;;;;;;;;;5055745;28;20344;-69
2022/07/04 00:42:56;;;;;;;;;;;;;;;;;;5055401;28;19939;-69
2022/07/04 00:45:22;;;;;;;;;;;;;;;;;;5055026;28;19909;-69
2022/07/04 00:47:48;;;;;;;;;;;;;;;;;;5055528;28;20293;-70
2022/07/04 00:50:13;;;;;;;;;;;;;;;;;;5055214;28;19909;-69
2022/07/04 00:52:39;;;;;;;;;;;;;;;;;;5054876;28;19936;-69
2022/07/04 00:55:05;;;;;;;;;;;;;;;;;;5054856;28;20035;-69
2022/07/04 00:57:31;;;;;;;;;;;;;;;;;;5055028;28;19912;-69
2022/07/04 00:59:57;;;;;;;;;;;;;;;;;;5054776;28;19909;-69
2022/07/04 01:02:23;;;;;;;;;;;;;;;;;;5054997;28;19909;-69
2022/07/04 01:04:49;;;;;;;;;;;;;;;;;;5054645;28;19931;-69
2022/07/04 01:07:15;;;;;;;;;;;;;;;;;;5054622;28;19971;-69
2022/07/04 01:09:41;;;;;;;;;;;;;;;;;;5054840;28;19912;-69
2022/07/04 01:12:06;;;;;;;;;;;;;;;;;;5054561;28;20369;-69
2022/07/04 01:14:32;;;;;;;;;;;;;;;;;;5036557;28;20353;-70
2022/07/04 01:16:58;;;;;;;;;;;;;;;;;;5054385;28;19922;-69
2022/07/04 01:19:24;;;;;;;;;;;;;;;;;;5054394;28;20432;-70
2022/07/04 01:21:50;;;;;;;;;;;;;;;;;;5054374;28;20006;-69
2022/07/04 01:24:16;;;;;;;;;;;;;;;;;;5054240;28;19909;-69
2022/07/04 01:26:42;;;;;;;;;;;;;;;;;;5054104;28;19924;-70
2022/07/04 01:29:08;;;;;;;;;;;;;;;;;;5036345;28;19908;-69
2022/07/04 01:31:34;;;;;;;;;;;;;;;;;;5054785;28;20024;-69
2022/07/04 01:33:59;;;;;;;;;;;;;;;;;;5054419;28;19912;-69
2022/07/04 01:36:25;;;;;;;;;;;;;;;;;;5054326;28;20372;-69
2022/07/04 01:38:51;;;;;;;;;;;;;;;;;;5054049;28;19909;-69
2022/07/04 01:41:17;;;;;;;;;;;;;;;;;;5036139;28;19917;-69
2022/07/04 01:43:43;;;;;;;;;;;;;;;;;;5036066;28;19959;-69
2022/07/04 01:46:09;;;;;;;;;;;;;;;;;;5054245;28;19909;-69
2022/07/04 01:48:35;;;;;;;;;;;;;;;;;;5053714;28;19916;-70
2022/07/04 01:51:01;;;;;;;;;;;;;;;;;;5053888;28;20327;-69
2022/07/04 01:53:27;;;;;;;;;;;;;;;;;;5053889;28;19952;-69
2022/07/04 01:55:53;;;;;;;;;;;;;;;;;;5054012;28;19955;-70
2022/07/04 01:58:18;;;;;;;;;;;;;;;;;;5035879;28;20300;-69
2022/07/04 02:03:29;;;;;;;;;;;;;;;;;;5054079;28;19939;-69
2022/07/04 02:05:55;;;;;;;;;;;;;;;;;;5053984;28;19960;-70
2022/07/04 02:08:21;;;;;;;;;;;;;;;;;;5053681;28;19913;-70
2022/07/04 02:10:47;;;;;;;;;;;;;;;;;;5054185;28;19909;-70
2022/07/04 02:13:13;;;;;;;;;;;;;;;;;;5053564;28;20360;-69
2022/07/04 02:15:40;;;;;;;;;;;;;;;;;;5053763;28;19960;-69
2022/07/04 02:18:06;;;;;;;;;;;;;;;;;;5035700;28;20335;-69
2022/07/04 02:20:32;;;;;;;;;;;;;;;;;;5053538;28;20003;-67
2022/07/04 02:22:58;;;;;;;;;;;;;;;;;;5053528;28;20007;-68
2022/07/04 02:25:24;;;;;;;;;;;;;;;;;;5053662;28;19909;-67
2022/07/04 02:27:50;;;;;;;;;;;;;;;;;;5053082;28;19928;-67
2022/07/04 02:30:16;;;;;;;;;;;;;;;;;;5053707;28;19909;-67
2022/07/04 02:32:42;;;;;;;;;;;;;;;;;;5053419;28;20403;-67
2022/07/04 02:35:08;;;;;;;;;;;;;;;;;;5053452;28;19909;-67
2022/07/04 02:37:33;;;;;;;;;;;;;;;;;;5053342;28;20456;-68
2022/07/04 02:39:59;;;;;;;;;;;;;;;;;;5053395;28;20291;-66
2022/07/04 02:42:25;;;;;;;;;;;;;;;;;;5053890;28;19931;-67
2022/07/04 02:44:51;;;;;;;;;;;;;;;;;;5053335;28;20280;-67
2022/07/04 02:47:17;;;;;;;;;;;;;;;;;;5053288;28;19959;-67
2022/07/04 02:49:43;;;;;;;;;;;;;;;;;;5053531;28;19963;-67
2022/07/04 02:52:09;;;;;;;;;;;;;;;;;;5053248;28;19909;-70
2022/07/04 02:54:35;;;;;;;;;;;;;;;;;;5053521;28;19916;-67
2022/07/04 02:57:01;;;;;;;;;;;;;;;;;;5053116;28;19917;-67
2022/07/04 02:59:26;;;;;;;;;;;;;;;;;;5053943;28;19909;-69
2022/07/04 03:01:52;;;;;;;;;;;;;;;;;;5057292;28;19994;-68
2022/07/04 03:04:18;;;;;;;;;;;;;;;;;;5039028;28;19908;-67
2022/07/04 03:06:44;;;;;;;;;;;;;;;;;;5057201;28;19909;-67
2022/07/04 03:09:10;;;;;;;;;;;;;;;;;;5056853;28;19913;-66
2022/07/04 03:11:36;;;;;;;;;;;;;;;;;;5056854;28;19916;-67
2022/07/04 03:14:02;;;;;;;;;;;;;;;;;;5057074;28;19959;-67
2022/07/04 03:16:28;;;;;;;;;;;;;;;;;;5056713;28;19920;-68
2022/07/04 03:18:53;;;;;;;;;;;;;;;;;;5057006;28;19992;-67
2022/07/04 03:21:19;;;;;;;;;;;;;;;;;;5056718;28;19948;-67
2022/07/04 03:23:57;;;;;;;;;;;;;;;;;;5056832;28;19912;-67
2022/07/04 03:26:25;;;;;;;;;;;;;;;;;;5056663;28;19917;-68
2022/07/04 03:28:51;;;;;;;;;;;;;;;;;;5038521;28;19909;-67
2022/07/04 03:31:17;;;;;;;;;;;;;;;;;;5056746;28;19919;-68
2022/07/04 03:33:43;;;;;;;;;;;;;;;;;;5056371;28;19916;-68
2022/07/04 03:36:09;;;;;;;;;;;;;;;;;;5056293;28;19917;-68
2022/07/04 03:38:35;;;;;;;;;;;;;;;;;;5056523;28;19909;-67
2022/07/04 03:41:01;;;;;;;;;;;;;;;;;;5056243;28;19948;-68
2022/07/04 03:43:26;;;;;;;;;;;;;;;;;;5056511;28;19909;-68
2022/07/04 03:45:52;;;;;;;;;;;;;;;;;;5056462;28;19916;-67
2022/07/04 03:48:18;;;;;;;;;;;;;;;;;;5056163;28;19908;-68
2022/07/04 03:50:44;;;;;;;;;;;;;;;;;;5056124;28;19909;-68
2022/07/04 03:53:10;;;;;;;;;;;;;;;;;;5056072;28;19920;-67
2022/07/04 03:55:36;;;;;;;;;;;;;;;;;;5056288;28;19908;-67
2022/07/04 03:58:04;;;;;;;;;;;;;;;;;;5055905;28;19913;-68
2022/07/04 04:00:30;;;;;;;;;;;;;;;;;;5056440;28;19913;-67
2022/07/04 04:02:56;;;;;;;;;;;;;;;;;;5056170;28;19916;-68
2022/07/04 04:05:27;;;;;;;;;;;;;;;;;;5055828;28;20310;-68
2022/07/04 04:07:53;;;;;;;;;;;;;;;;;;5056395;28;19916;-67
2022/07/04 04:10:19;;;;;;;;;;;;;;;;;;5055702;28;19909;-68
2022/07/04 04:12:45;;;;;;;;;;;;;;;;;;5055702;28;19909;-68
2022/07/04 04:15:11;;;;;;;;;;;;;;;;;;5055922;28;19959;-67
2022/07/04 04:17:37;;;;;;;;;;;;;;;;;;5055608;28;20424;-68
2022/07/04 04:20:03;;;;;;;;;;;;;;;;;;5055588;28;19932;-68
2022/07/04 04:22:29;;;;;;;;;;;;;;;;;;5055843;28;19909;-68
2022/07/04 04:24:55;;;;;;;;;;;;;;;;;;5055412;28;19916;-68
2022/07/04 04:27:21;;;;;;;;;;;;;;;;;;5055350;28;19916;-68
2022/07/04 04:29:47;;;;;;;;;;;;;;;;;;5055963;28;19909;-67
2022/07/04 04:32:13;;;;;;;;;;;;;;;;;;5055396;28;19915;-67
2022/07/04 04:34:39;;;;;;;;;;;;;;;;;;5055303;28;20367;-67
2022/07/04 04:37:04;;;;;;;;;;;;;;;;;;5055188;28;19917;-68
2022/07/04 04:39:30;;;;;;;;;;;;;;;;;;5055472;28;20246;-68
2022/07/04 04:41:56;;;;;;;;;;;;;;;;;;5055135;28;19915;-68
2022/07/04 04:44:22;;;;;;;;;;;;;;;;;;5055367;28;19909;-67
2022/07/04 04:46:48;;;;;;;;;;;;;;;;;;5055044;28;19948;-68
2022/07/04 04:49:14;;;;;;;;;;;;;;;;;;5055287;28;20273;-67
2022/07/04 04:51:40;;;;;;;;;;;;;;;;;;5054950;28;19913;-68
2022/07/04 04:54:06;;;;;;;;;;;;;;;;;;5054902;28;19983;-67
2022/07/04 04:56:32;;;;;;;;;;;;;;;;;;5054780;28;19919;-68
2022/07/04 04:58:58;;;;;;;;;;;;;;;;;;5054809;28;19955;-68
2022/07/04 05:01:23;;;;;;;;;;;;;;;;;;5055085;28;19915;-68
2022/07/04 05:03:49;;;;;;;;;;;;;;;;;;5054730;28;20312;-67
2022/07/04 05:06:15;;;;;;;;;;;;;;;;;;5054702;28;19916;-67
2022/07/04 05:08:41;;;;;;;;;;;;;;;;;;5054672;28;19963;-68
2022/07/04 05:11:07;;;;;;;;;;;;;;;;;;5054893;28;19909;-68
2022/07/04 05:13:33;;;;;;;;;;;;;;;;;;5054826;28;19909;-67
2022/07/04 05:15:59;;;;;;;;;;;;;;;;;;5054446;28;20002;-67
2022/07/04 05:18:25;;;;;;;;;;;;;;;;;;5054450;28;19909;-67
2022/07/04 05:20:50;;;;;;;;;;;;;;;;;;5054404;28;19909;-69
2022/07/04 05:23:16;;;;;;;;;;;;;;;;;;5054497;28;19909;-67
2022/07/04 05:25:42;;;;;;;;;;;;;;;;;;5054252;28;19909;-68
2022/07/04 05:28:08;;;;;;;;;;;;;;;;;;5053090;28;19921;-70
2022/07/04 05:30:34;;;;;;;;;;;;;;;;;;5053440;28;19944;-69
2022/07/04 05:33:01;;;;;;;;;;;;;;;;;;5053604;28;19919;-69
2022/07/04 05:35:27;;;;;;;;;;;;;;;;;;5053376;28;19916;-69
2022/07/04 05:37:53;;;;;;;;;;;;;;;;;;5053281;28;20365;-69
2022/07/04 05:40:21;;;;;;;;;;;;;;;;;;5053562;28;20318;-69
2022/07/04 05:42:47;;;;;;;;;;;;;;;;;;5035344;28;19937;-69
2022/07/04 05:45:13;;;;;;;;;;;;;;;;;;5053253;28;19916;-69
2022/07/04 05:47:38;;;;;;;;;;;;;;;;;;5053732;28;20388;-68
2022/07/04 05:50:04;;;;;;;;;;;;;;;;;;5053129;28;19909;-69
2022/07/04 05:52:30;;;;;;;;;;;;;;;;;;5053374;28;19920;-68
2022/07/04 05:54:56;;;;;;;;;;;;;;;;;;5053064;28;19916;-69
2022/07/04 05:57:22;;;;;;;;;;;;;;;;;;5052942;28;19917;-68
2022/07/04 05:59:48;;;;;;;;;;;;;;;;;;5053557;28;20350;-68
2022/07/04 06:02:15;;;;;;;;;;;;;;;;;;5052996;28;19947;-69
2022/07/04 06:04:42;;;;;;;;;;;;;;;;;;5053214;28;19913;-69
2022/07/04 06:07:08;;;;;;;;;;;;;;;;;;5052916;28;20266;-69
2022/07/04 06:09:34;;;;;;;;;;;;;;;;;;5053450;28;19909;-69
2022/07/04 06:12:00;;;;;;;;;;;;;;;;;;5052834;28;20011;-69
2022/07/04 06:14:26;;;;;;;;;;;;;;;;;;5053079;28;20245;-69
2022/07/04 06:16:52;;;;;;;;;;;;;;;;;;5052987;28;19934;-69
2022/07/04 06:19:18;;;;;;;;;;;;;;;;;;5053333;28;19916;-69
2022/07/04 06:21:44;;;;;;;;;;;;;;;;;;5052725;28;19912;-69
2022/07/04 06:24:10;;;;;;;;;;;;;;;;;;5052614;28;19959;-69
2022/07/04 06:26:35;;;;;;;;;;;;;;;;;;4982521;28;1990412;-69
2022/07/04 06:29:01;;;;;;;;;;;;;;;;;;5053681;28;19916;-69
2022/07/04 06:31:27;;;;;;;;;;;;;;;;;;5053704;28;20277;-69
2022/07/04 06:36:37;;;;;;;;;;;;;;;;;;5057834;28;19986;-69
2022/07/04 06:39:03;;;;;;;;;;;;;;;;;;5057767;28;19910;-69
2022/07/04 06:41:29;;;;;;;;;;;;;;;;;;5057742;28;20341;-69
2022/07/04 06:43:55;;;;;;;;;;;;;;;;;;5039450;28;20003;-68
2022/07/04 06:46:21;;;;;;;;;;;;;;;;;;5057360;28;19962;-69
2022/07/04 06:48:47;;;;;;;;;;;;;;;;;;5057847;28;19913;-68
2022/07/04 06:51:13;;;;;;;;;;;;;;;;;;5057248;28;19908;-69
2022/07/04 06:53:39;;;;;;;;;;;;;;;;;;5057759;28;20468;-70
2022/07/04 06:56:05;;;;;;;;;;;;;;;;;;5057072;28;19917;-69
2022/07/04 06:58:31;;;;;;;;;;;;;;;;;;5057110;28;19948;-69
2022/07/04 07:00:56;;;;;;;;;;;;;;;;;;5056947;28;19909;-69
2022/07/04 07:03:22;;;;;;;;;;;;;;;;;;5055923;28;19920;-73
2022/07/04 07:05:48;;;;;;;;;;;;;;;;;;5057020;28;20364;-77
2022/07/04 07:08:14;;;;;;;;;;;;;;;;;;5056449;28;19920;-74
2022/07/04 07:10:40;;;;;;;;;;;;;;;;;;5056869;28;19920;-77
2022/07/04 07:13:06;;;;;;;;;;;;;;;;;;5057211;28;19915;-76
2022/07/04 07:15:35;;;;;;;;;;;;;;;;;;5039018;28;20275;-76
2022/07/04 07:18:00;;;;;;;;;;;;;;;;;;5056218;28;19921;-77
2022/07/04 07:20:26;;;;;;;;;;;;;;;;;;5056436;28;20027;-75
2022/07/04 07:22:52;;;;;;;;;;;;;;;;;;5056459;28;19909;-73
2022/07/04 07:25:18;;;;;;;;;;;;;;;;;;5056519;28;19915;-75
2022/07/04 07:27:44;;;;;;;;;;;;;;;;;;5055927;28;19927;-73
2022/07/04 07:30:10;;;;;;;;;;;;;;;;;;5036872;28;19913;-76
2022/07/04 07:32:36;;;;;;;;;;;;;;;;;;5036411;28;19909;-76
2022/07/04 07:35:02;;;;;;;;;;;;;;;;;;5036562;28;19909;-71
2022/07/04 07:37:28;;;;;;;;;;;;;;;;;;5036413;28;19914;-77
2022/07/04 07:39:54;;;;;;;;;;;;;;;;;;5050763;28;19920;-76
2022/07/04 07:42:19;;;;;;;;;;;;;;;;;;5056341;28;19995;-76
2022/07/04 07:44:46;;;;;;;;;;;;;;;;;;5055953;28;19919;-74
2022/07/04 07:47:12;;;;;;;;;;;;;;;;;;5056261;28;19963;-76
2022/07/04 07:49:37;;;;;;;;;;;;;;;;;;5038158;28;19913;-74
2022/07/04 07:52:03;;;;;;;;;;;;;;;;;;5056476;28;19909;-72
2022/07/04 07:54:29;;;;;;;;;;;;;;;;;;5055994;28;20066;-72
2022/07/04 07:56:55;;;;;;;;;;;;;;;;;;5051823;28;19920;-76
2022/07/04 07:59:21;;;;;;;;;;;;;;;;;;5054565;28;20000;-72
2022/07/04 08:01:47;;;;;;;;;;;;;;;;;;5053945;28;19912;-67
2022/07/04 08:06:58;;;;;;;;;;;;;;;;;;5055505;28;19920;-77
2022/07/04 08:09:23;;;;;;;;;;;;;;;;;;5055450;28;19912;-75
2022/07/04 08:11:49;;;;;;;;;;;;;;;;;;5055703;28;20411;-68
2022/07/04 08:14:15;;;;;;;;;;;;;;;;;;5055133;28;19920;-68
2022/07/04 08:16:41;;;;;;;;;;;;;;;;;;5055162;28;19916;-68
2022/07/04 08:19:07;;;;;;;;;;;;;;;;;;5055572;28;19916;-68
2022/07/04 08:21:34;;;;;;;;;;;;;;;;;;5055520;28;20006;-68
2022/07/04 08:24:00;;;;;;;;;;;;;;;;;;5055474;28;19909;-68
2022/07/04 08:26:25;;;;;;;;;;;;;;;;;;5054967;28;19917;-68
2022/07/04 08:28:51;;;;;;;;;;;;;;;;;;5055256;28;19909;-77
2022/07/04 08:31:17;;;;;;;;;;;;;;;;;;5055347;28;19912;-75
2022/07/04 08:33:43;;;;;;;;;;;;;;;;;;5055382;28;19947;-76
2022/07/04 08:36:09;;;;;;;;;;;;;;;;;;5036849;28;19909;-76
2022/07/04 08:38:35;;;;;;;;;;;;;;;;;;5052609;28;19915;-75
2022/07/04 08:41:01;;;;;;;;;;;;;;;;;;5045710;28;19913;-76
2022/07/04 08:43:28;;;;;;;;;;;;;;;;;;5055162;28;19909;-76
2022/07/04 08:45:53;;;;;;;;;;;;;;;;;;5055028;28;19948;-76
2022/07/04 08:48:19;;;;;;;;;;;;;;;;;;5055623;28;20357;-77
2022/07/04 08:50:45;;;;;;;;;;;;;;;;;;5055007;28;19958;-76
2022/07/04 08:53:11;;;;;;;;;;;;;;;;;;5055637;28;19909;-77
2022/07/04 08:58:31;;;;;;;;;;;;;;;;;;5053926;28;19959;-77
2022/07/04 09:00:57;;;;;;;;;;;;;;;;;;5054869;28;19924;-77
2022/07/04 09:03:23;;;;;;;;;;;;;;;;;;5053649;28;20412;-67
2022/07/04 09:05:49;;;;;;;;;;;;;;;;;;5054353;28;19951;-68
2022/07/04 09:08:15;;;;;;;;;;;;;;;;;;5054695;28;19923;-68
2022/07/04 09:10:41;;;;;;;;;;;;;;;;;;5040897;28;19909;-68
2022/07/04 09:13:07;;;;;;;;;;;;;;;;;;5043271;28;20335;-68
2022/07/04 09:15:33;;;;;;;;;;;;;;;;;;5054526;28;19999;-68
2022/07/04 09:17:58;;;;;;;;;;;;;;;;;;5053933;28;20288;-74
2022/07/04 09:20:24;;;;;;;;;;;;;;;;;;5054265;28;19909;-79
2022/07/04 09:22:50;;;;;;;;;;;;;;;;;;5054246;28;19920;-78
2022/07/04 09:25:16;;;;;;;;;;;;;;;;;;5054469;28;20439;-75
2022/07/04 09:27:44;;;;;;;;;;;;;;;;;;5053917;28;20296;-74
2022/07/04 09:30:11;;;;;;;;;;;;;;;;;;5054552;28;19912;-77
2022/07/04 09:32:37;;;;;;;;;;;;;;;;;;5054595;28;19916;-77
2022/07/04 09:35:03;;;;;;;;;;;;;;;;;;5054769;28;20360;-75
2022/07/04 09:37:29;;;;;;;;;;;;;;;;;;5054088;28;19920;-75
2022/07/04 09:39:55;;;;;;;;;;;;;;;;;;5038760;28;19910;-74
2022/07/04 09:42:21;;;;;;;;;;;;;;;;;;5034423;28;20274;-77
2022/07/04 09:44:49;;;;;;;;;;;;;;;;;;5034397;28;20002;-79
2022/07/04 09:47:14;;;;;;;;;;;;;;;;;;5034153;28;19999;-69
2022/07/04 09:49:41;;;;;;;;;;;;;;;;;;5034020;28;20002;-76
2022/07/04 09:52:07;;;;;;;;;;;;;;;;;;5016142;28;19909;-79
2022/07/04 09:54:33;;;;;;;;;;;;;;;;;;5044341;28;19909;-75
2022/07/04 09:56:59;;;;;;;;;;;;;;;;;;5054348;28;20342;-75
2022/07/04 09:59:27;;;;;;;;;;;;;;;;;;5035553;28;19959;-74
2022/07/04 10:01:52;;;;;;;;;;;;;;;;;;5053407;28;20376;-75
2022/07/04 10:04:21;;;;;;;;;;;;;;;;;;5040638;28;19920;-77
2022/07/04 10:06:47;;;;;;;;;;;;;;;;;;5053767;28;19913;-74
2022/07/04 10:09:12;;;;;;;;;;;;;;;;;;5052986;28;19913;-75
2022/07/04 10:11:38;;;;;;;;;;;;;;;;;;5051713;28;19909;-75
2022/07/04 10:14:04;;;;;;;;;;;;;;;;;;5052762;28;20008;-76
2022/07/04 10:16:30;;;;;;;;;;;;;;;;;;5034480;28;19966;-78
2022/07/04 10:18:56;;;;;;;;;;;;;;;;;;5052742;28;19916;-75
2022/07/04 10:21:22;;;;;;;;;;;;;;;;;;5052390;28;19912;-71
2022/07/04 10:23:48;;;;;;;;;;;;;;;;;;5035252;28;19962;-72
2022/07/04 10:26:14;;;;;;;;;;;;;;;;;;5053253;28;19920;-72
2022/07/04 10:28:40;;;;;;;;;;;;;;;;;;5053793;28;19999;-71
2022/07/04 10:31:05;;;;;;;;;;;;;;;;;;5053630;28;19912;-69
2022/07/04 10:33:31;;;;;;;;;;;;;;;;;;5035440;28;19916;-69
2022/07/04 10:35:57;;;;;;;;;;;;;;;;;;5053925;28;19909;-70
2022/07/04 10:38:23;;;;;;;;;;;;;;;;;;5053201;28;19948;-70
2022/07/04 10:40:49;;;;;;;;;;;;;;;;;;5053922;28;19915;-70
2022/07/04 10:43:15;;;;;;;;;;;;;;;;;;5053351;28;20008;-70
2022/07/04 10:45:41;;;;;;;;;;;;;;;;;;5053387;28;19952;-68
2022/07/04 10:48:07;;;;;;;;;;;;;;;;;;5053246;28;19909;-69
2022/07/04 10:50:33;;;;;;;;;;;;;;;;;;5053292;28;19932;-70
2022/07/04 10:52:59;;;;;;;;;;;;;;;;;;5053305;28;19909;-70
2022/07/04 10:55:25;;;;;;;;;;;;;;;;;;5053501;28;19956;-70
2022/07/04 10:57:51;;;;;;;;;;;;;;;;;;5053429;28;19923;-70
2022/07/04 11:00:17;;;;;;;;;;;;;;;;;;5053786;28;19916;-69
2022/07/04 11:02:43;;;;;;;;;;;;;;;;;;5053104;28;19935;-68
2022/07/04 11:05:09;;;;;;;;;;;;;;;;;;5053170;28;19908;-70
2022/07/04 11:07:35;;;;;;;;;;;;;;;;;;5053404;28;19955;-68
2022/07/04 11:10:01;;;;;;;;;;;;;;;;;;5053087;28;20004;-68
2022/07/04 11:12:27;;;;;;;;;;;;;;;;;;5053643;28;20265;-69
2022/07/04 11:14:52;;;;;;;;;;;;;;;;;;5053319;28;19909;-70
2022/07/04 11:17:18;;;;;;;;;;;;;;;;;;5052983;28;19963;-70
2022/07/04 11:19:44;;;;;;;;;;;;;;;;;;5053038;28;19909;-68
2022/07/04 11:22:10;;;;;;;;;;;;;;;;;;5056387;28;19913;-69
2022/07/04 11:24:36;;;;;;;;;;;;;;;;;;5057152;28;19909;-69
2022/07/04 11:27:02;;;;;;;;;;;;;;;;;;5056425;28;19974;-70
2022/07/04 11:29:28;;;;;;;;;;;;;;;;;;5056616;28;19909;-69
2022/07/04 11:31:54;;;;;;;;;;;;;;;;;;5056554;28;20442;-70
2022/07/04 11:34:20;;;;;;;;;;;;;;;;;;5057049;28;19970;-70
2022/07/04 11:36:46;;;;;;;;;;;;;;;;;;5056369;28;19913;-70
2022/07/04 11:39:12;;;;;;;;;;;;;;;;;;5056677;28;19952;-70
2022/07/04 11:47:07;;;;;;;;;;;;;;;;;;5056303;28;19975;-69
2022/07/04 11:49:33;;;;;;;;;;;;;;;;;;5056670;28;19955;-70
2022/07/04 11:51:59;;;;;;;;;;;;;;;;;;5056416;28;19912;-69
2022/07/04 11:54:25;;;;;;;;;;;;;;;;;;5056119;28;19909;-70
2022/07/04 11:56:51;;;;;;;;;;;;;;;;;;5056558;28;19919;-71
2022/07/04 11:59:17;;;;;;;;;;;;;;;;;;5056003;28;20335;-70
2022/07/04 12:01:43;;;;;;;;;;;;;;;;;;5055959;28;19908;-69
2022/07/04 12:04:09;;;;;;;;;;;;;;;;;;5055916;28;20004;-68
2022/07/04 12:06:35;;;;;;;;;;;;;;;;;;5056424;28;20281;-67
2022/07/04 12:09:01;;;;;;;;;;;;;;;;;;5055823;28;19913;-69
2022/07/04 12:11:27;;;;;;;;;;;;;;;;;;5055799;28;19909;-69
2022/07/04 12:13:53;;;;;;;;;;;;;;;;;;5055734;28;19916;-70
2022/07/04 12:16:18;;;;;;;;;;;;;;;;;;5056190;28;19908;-70
2022/07/04 12:18:44;;;;;;;;;;;;;;;;;;5055944;28;19909;-70
2022/07/04 12:21:10;;;;;;;;;;;;;;;;;;5055625;28;20441;-70
2022/07/04 12:23:36;;;;;;;;;;;;;;;;;;5055527;28;19916;-70
2022/07/04 12:26:03;;;;;;;;;;;;;;;;;;5055305;28;20388;-69
2022/07/04 12:28:29;;;;;;;;;;;;;;;;;;5056044;28;19963;-69
2022/07/04 12:30:55;;;;;;;;;;;;;;;;;;5055352;28;20357;-68
2022/07/04 12:33:21;;;;;;;;;;;;;;;;;;5054222;28;20328;-70
2022/07/04 12:35:50;;;;;;;;;;;;;;;;;;5055891;28;19909;-71
2022/07/04 12:38:16;;;;;;;;;;;;;;;;;;5055189;28;20291;-68
2022/07/04 12:40:41;;;;;;;;;;;;;;;;;;5037342;28;20000;-69
2022/07/04 12:43:07;;;;;;;;;;;;;;;;;;5055731;28;19909;-69
2022/07/04 12:45:33;;;;;;;;;;;;;;;;;;5055172;28;19998;-69
2022/07/04 12:47:59;;;;;;;;;;;;;;;;;;5055133;28;20391;-70
2022/07/04 12:50:26;;;;;;;;;;;;;;;;;;5055060;28;19909;-70
2022/07/04 12:52:51;;;;;;;;;;;;;;;;;;5055240;28;19915;-70
2022/07/04 12:55:17;;;;;;;;;;;;;;;;;;5054909;28;19995;-68
2022/07/04 12:57:43;;;;;;;;;;;;;;;;;;5054861;28;19919;-68
2022/07/04 13:00:09;;;;;;;;;;;;;;;;;;5054801;28;19909;-69
2022/07/04 13:02:35;;;;;;;;;;;;;;;;;;5054831;28;19909;-69
2022/07/04 13:05:01;;;;;;;;;;;;;;;;;;5055075;28;19920;-69
2022/07/04 13:07:27;;;;;;;;;;;;;;;;;;5054697;28;19931;-70
2022/07/04 13:09:53;;;;;;;;;;;;;;;;;;5054700;28;19948;-70
2022/07/04 13:12:25;;;;;;;;;;;;;;;;;;5054650;28;19946;-70
2022/07/04 13:14:51;;;;;;;;;;;;;;;;;;5054621;28;19936;-70
2022/07/04 13:17:17;;;;;;;;;;;;;;;;;;5054463;28;19913;-69
2022/07/04 13:19:43;;;;;;;;;;;;;;;;;;5054779;28;19916;-69
2022/07/04 13:22:09;;;;;;;;;;;;;;;;;;5054398;28;19916;-69
2022/07/04 13:24:35;;;;;;;;;;;;;;;;;;5054877;28;19916;-69
2022/07/04 13:27:00;;;;;;;;;;;;;;;;;;5054164;28;19964;-68
2022/07/04 13:29:26;;;;;;;;;;;;;;;;;;5054309;28;19909;-68
2022/07/04 13:31:52;;;;;;;;;;;;;;;;;;5054679;28;19908;-70
2022/07/04 13:34:18;;;;;;;;;;;;;;;;;;5054471;28;19916;-67
2022/07/04 13:36:45;;;;;;;;;;;;;;;;;;5054680;28;19971;-70
2022/07/04 13:39:11;;;;;;;;;;;;;;;;;;5054097;28;20425;-68
2022/07/04 13:41:36;;;;;;;;;;;;;;;;;;5054665;28;19999;-69
2022/07/04 13:44:02;;;;;;;;;;;;;;;;;;5053934;28;19996;-68
2022/07/04 13:46:28;;;;;;;;;;;;;;;;;;5054033;28;20276;-68
2022/07/04 13:48:54;;;;;;;;;;;;;;;;;;5053957;28;19916;-69
2022/07/04 13:51:20;;;;;;;;;;;;;;;;;;5054228;28;19913;-69
2022/07/04 13:53:46;;;;;;;;;;;;;;;;;;5053880;28;19909;-68
2022/07/04 13:56:15;;;;;;;;;;;;;;;;;;5053822;28;19916;-70
2022/07/04 13:58:41;;;;;;;;;;;;;;;;;;5054015;28;19954;-69
2022/07/04 14:01:07;;;;;;;;;;;;;;;;;;5053809;28;19909;-69
2022/07/04 14:03:33;;;;;;;;;;;;;;;;;;5053787;28;20337;-70
2022/07/04 14:05:59;;;;;;;;;;;;;;;;;;5053739;28;19909;-70
2022/07/04 14:08:25;;;;;;;;;;;;;;;;;;5053699;28;20328;-69
2022/07/04 14:10:51;;;;;;;;;;;;;;;;;;5053574;28;20007;-69
2022/07/04 14:13:17;;;;;;;;;;;;;;;;;;5053635;28;20005;-68
2022/07/04 14:15:43;;;;;;;;;;;;;;;;;;5053921;28;19916;-70
2022/07/04 14:18:13;;;;;;;;;;;;;;;;;;5053518;28;19913;-70
2022/07/04 14:20:39;;;;;;;;;;;;;;;;;;5035688;28;19908;-71
2022/07/04 14:23:05;;;;;;;;;;;;;;;;;;5053529;28;19959;-68
2022/07/04 14:25:31;;;;;;;;;;;;;;;;;;5053553;28;20400;-69
2022/07/04 14:27:57;;;;;;;;;;;;;;;;;;5053156;28;19920;-69
2022/07/04 14:30:22;;;;;;;;;;;;;;;;;;5053499;28;20265;-70
2022/07/04 14:32:50;;;;;;;;;;;;;;;;;;5053479;28;19916;-70
2022/07/04 14:35:16;;;;;;;;;;;;;;;;;;5053484;28;19909;-71
2022/07/04 14:37:42;;;;;;;;;;;;;;;;;;5053601;28;19919;-69
2022/07/04 14:40:08;;;;;;;;;;;;;;;;;;5053392;28;19908;-69
2022/07/04 14:42:33;;;;;;;;;;;;;;;;;;5053957;28;19963;-69
2022/07/04 14:44:59;;;;;;;;;;;;;;;;;;5053313;28;20285;-69
2022/07/04 14:47:25;;;;;;;;;;;;;;;;;;5053887;28;19916;-69
2022/07/04 14:49:51;;;;;;;;;;;;;;;;;;5053292;28;19909;-70
2022/07/04 14:52:17;;;;;;;;;;;;;;;;;;5053802;28;19920;-69
2022/07/04 14:54:43;;;;;;;;;;;;;;;;;;5053508;28;19917;-69
2022/07/04 14:57:09;;;;;;;;;;;;;;;;;;5056798;28;20432;-69
2022/07/04 14:59:38;;;;;;;;;;;;;;;;;;5057468;28;20288;-68
2022/07/04 15:02:04;;;;;;;;;;;;;;;;;;5057347;28;19908;-69
2022/07/04 15:04:30;;;;;;;;;;;;;;;;;;5057313;28;19908;-68
2022/07/04 15:06:56;;;;;;;;;;;;;;;;;;5057020;28;19909;-68
2022/07/04 15:09:22;;;;;;;;;;;;;;;;;;5057544;28;19934;-71
2022/07/04 15:11:50;;;;;;;;;;;;;;;;;;5056938;28;19995;-70
2022/07/04 15:14:16;;;;;;;;;;;;;;;;;;5057377;28;20416;-70
2022/07/04 15:16:41;;;;;;;;;;;;;;;;;;5056762;28;20014;-69
2022/07/04 15:19:07;;;;;;;;;;;;;;;;;;5057086;28;19909;-69
2022/07/04 15:24:18;;;;;;;;;;;;;;;;;;5056496;28;19924;-68
2022/07/04 15:26:44;;;;;;;;;;;;;;;;;;5056835;28;20300;-68
2022/07/04 15:29:10;;;;;;;;;;;;;;;;;;5056895;28;20420;-70
2022/07/04 15:31:36;;;;;;;;;;;;;;;;;;5056852;28;19951;-69
2022/07/04 15:34:02;;;;;;;;;;;;;;;;;;5056514;28;19943;-69
2022/07/04 15:36:27;;;;;;;;;;;;;;;;;;5056409;28;19959;-68
2022/07/04 15:38:53;;;;;;;;;;;;;;;;;;5056710;28;19958;-67
2022/07/04 15:41:19;;;;;;;;;;;;;;;;;;5056387;28;19958;-70
2022/07/04 15:43:45;;;;;;;;;;;;;;;;;;5056345;28;20323;-68
2022/07/04 15:46:12;;;;;;;;;;;;;;;;;;5056326;28;20015;-70
2022/07/04 15:48:37;;;;;;;;;;;;;;;;;;5038261;28;20039;-68
2022/07/04 15:51:03;;;;;;;;;;;;;;;;;;5056193;28;19995;-70
2022/07/04 15:53:29;;;;;;;;;;;;;;;;;;5056713;28;20352;-70
2022/07/04 15:55:55;;;;;;;;;;;;;;;;;;5056104;28;19909;-71
2022/07/04 15:58:21;;;;;;;;;;;;;;;;;;5055995;28;19917;-69
2022/07/04 16:00:47;;;;;;;;;;;;;;;;;;5056330;28;19956;-69
2022/07/04 16:03:15;;;;;;;;;;;;;;;;;;5056294;28;19909;-68
2022/07/04 16:05:41;;;;;;;;;;;;;;;;;;5056519;28;20392;-69
2022/07/04 16:08:07;;;;;;;;;;;;;;;;;;5055588;28;19915;-70
2022/07/04 16:10:33;;;;;;;;;;;;;;;;;;5055792;28;19909;-69
2022/07/04 16:12:59;;;;;;;;;;;;;;;;;;5055813;28;19908;-69
2022/07/04 16:15:25;;;;;;;;;;;;;;;;;;5056032;28;19909;-68
2022/07/04 16:17:51;;;;;;;;;;;;;;;;;;5055644;28;20270;-69
2022/07/04 16:20:18;;;;;;;;;;;;;;;;;;5055665;28;20046;-70
2022/07/04 16:22:44;;;;;;;;;;;;;;;;;;5055645;28;19909;-69
2022/07/04 16:25:10;;;;;;;;;;;;;;;;;;5055506;28;19908;-68
2022/07/04 16:27:36;;;;;;;;;;;;;;;;;;5055355;28;20388;-70
2022/07/04 16:30:02;;;;;;;;;;;;;;;;;;5055503;28;19909;-69
2022/07/04 16:32:28;;;;;;;;;;;;;;;;;;5055764;28;19916;-68
2022/07/04 16:34:54;;;;;;;;;;;;;;;;;;5055415;28;19909;-69
2022/07/04 16:37:20;;;;;;;;;;;;;;;;;;5055269;28;20015;-67
2022/07/04 16:39:45;;;;;;;;;;;;;;;;;;5055856;28;19908;-69
2022/07/04 16:42:11;;;;;;;;;;;;;;;;;;5055260;28;19955;-70
2022/07/04 16:44:38;;;;;;;;;;;;;;;;;;5055209;28;19909;-69
2022/07/04 16:47:04;;;;;;;;;;;;;;;;;;5055446;28;19958;-71
2022/07/04 16:49:30;;;;;;;;;;;;;;;;;;5055100;28;19917;-70
2022/07/04 16:51:56;;;;;;;;;;;;;;;;;;5055332;28;19970;-71
2022/07/04 16:54:22;;;;;;;;;;;;;;;;;;5055026;28;19916;-69
2022/07/04 16:56:48;;;;;;;;;;;;;;;;;;5054905;28;19935;-69